sensor_id;sensor_type;location;lat;lon;timestamp;P1;durP1;ratioP1;P2;durP2;ratioP2
61435;SDS011;47304;47.456;19.160;2023-03-31T00:01:36;12.60;;;6.90;;
61435;SDS011;47304;47.456;19.160;2023-03-31T00:04:03;12.30;;;7.20;;
61435;SDS011;47304;47.456;19.160;2023-03-31T00:06:30;12.20;;;6.50;;
61435;SDS011;47304;47.456;19.160;2023-03-31T00:08:59;10.70;;;6.30;;
61435;SDS011;47304;47.456;19.160;2023-03-31T00:11:26;14.00;;;6.80;;
61435;SDS011;47304;47.456;19.160;2023-03-31T00:13:53;13.20;;;6.90;;
61435;SDS011;47304;47.456;19.160;2023-03-31T00:16:19;12.10;;;6.50;;
61435;SDS011;47304;47.456;19.160;2023-03-31T00:18:46;13.60;;;6.70;;
61435;SDS011;47304;47.456;19.160;2023-03-31T00:21:13;11.50;;;6.50;;
61435;SDS011;47304;47.456;19.160;2023-03-31T00:23:41;15.70;;;6.30;;
61435;SDS011;47304;47.456;19.160;2023-03-31T00:26:08;14.50;;;6.60;;
61435;SDS011;47304;47.456;19.160;2023-03-31T00:28:34;11.10;;;6.40;;
61435;SDS011;47304;47.456;19.160;2023-03-31T00:31:01;14.00;;;6.50;;
61435;SDS011;47304;47.456;19.160;2023-03-31T00:33:28;13.20;;;7.20;;
61435;SDS011;47304;47.456;19.160;2023-03-31T00:35:55;14.00;;;7.10;;
61435;SDS011;47304;47.456;19.160;2023-03-31T00:38:22;13.00;;;7.10;;
61435;SDS011;47304;47.456;19.160;2023-03-31T00:40:48;12.00;;;6.40;;
61435;SDS011;47304;47.456;19.160;2023-03-31T00:43:29;11.90;;;6.40;;
61435;SDS011;47304;47.456;19.160;2023-03-31T00:48:53;12.70;;;6.80;;
61435;SDS011;47304;47.456;19.160;2023-03-31T00:51:23;11.70;;;7.00;;
61435;SDS011;47304;47.456;19.160;2023-03-31T00:53:57;11.00;;;6.60;;
61435;SDS011;47304;47.456;19.160;2023-03-31T00:56:29;14.20;;;7.10;;
61435;SDS011;47304;47.456;19.160;2023-03-31T00:59:00;12.00;;;6.70;;
61435;SDS011;47304;47.456;19.160;2023-03-31T01:01:29;11.20;;;7.00;;
61435;SDS011;47304;47.456;19.160;2023-03-31T01:03:56;15.90;;;7.70;;
61435;SDS011;47304;47.456;19.160;2023-03-31T01:06:23;11.60;;;6.70;;
61435;SDS011;47304;47.456;19.160;2023-03-31T01:08:50;14.60;;;7.10;;
61435;SDS011;47304;47.456;19.160;2023-03-31T01:11:18;13.90;;;6.90;;
61435;SDS011;47304;47.456;19.160;2023-03-31T01:13:48;13.10;;;7.20;;
61435;SDS011;47304;47.456;19.160;2023-03-31T01:16:18;12.10;;;7.30;;
61435;SDS011;47304;47.456;19.160;2023-03-31T01:18:44;13.20;;;7.60;;
61435;SDS011;47304;47.456;19.160;2023-03-31T01:48:38;10.80;;;7.00;;
61435;SDS011;47304;47.456;19.160;2023-03-31T01:51:13;14.10;;;7.70;;
61435;SDS011;47304;47.456;19.160;2023-03-31T01:53:49;13.10;;;8.10;;
61435;SDS011;47304;47.456;19.160;2023-03-31T01:56:35;12.60;;;7.50;;
61435;SDS011;47304;47.456;19.160;2023-03-31T01:59:16;12.10;;;6.80;;
61435;SDS011;47304;47.456;19.160;2023-03-31T02:01:50;13.80;;;7.60;;
61435;SDS011;47304;47.456;19.160;2023-03-31T02:04:25;13.20;;;7.50;;
61435;SDS011;47304;47.456;19.160;2023-03-31T02:07:03;12.10;;;6.40;;
61435;SDS011;47304;47.456;19.160;2023-03-31T02:09:46;12.90;;;7.20;;
61435;SDS011;47304;47.456;19.160;2023-03-31T02:12:16;12.30;;;6.70;;
61435;SDS011;47304;47.456;19.160;2023-03-31T02:14:45;11.90;;;6.70;;
61435;SDS011;47304;47.456;19.160;2023-03-31T02:17:15;13.60;;;6.90;;
61435;SDS011;47304;47.456;19.160;2023-03-31T02:19:47;11.90;;;6.40;;
61435;SDS011;47304;47.456;19.160;2023-03-31T02:22:17;13.00;;;6.60;;
61435;SDS011;47304;47.456;19.160;2023-03-31T02:24:47;11.60;;;5.80;;
61435;SDS011;47304;47.456;19.160;2023-03-31T02:29:51;12.00;;;7.00;;
61435;SDS011;47304;47.456;19.160;2023-03-31T02:34:48;10.80;;;5.30;;
61435;SDS011;47304;47.456;19.160;2023-03-31T02:37:15;11.40;;;5.80;;
61435;SDS011;47304;47.456;19.160;2023-03-31T02:39:43;10.40;;;5.50;;
61435;SDS011;47304;47.456;19.160;2023-03-31T02:42:12;9.10;;;5.00;;
61435;SDS011;47304;47.456;19.160;2023-03-31T02:44:39;8.90;;;4.90;;
61435;SDS011;47304;47.456;19.160;2023-03-31T02:47:07;10.90;;;5.30;;
61435;SDS011;47304;47.456;19.160;2023-03-31T02:49:36;9.10;;;4.70;;
61435;SDS011;47304;47.456;19.160;2023-03-31T03:08:42;9.10;;;3.80;;
61435;SDS011;47304;47.456;19.160;2023-03-31T03:11:21;9.70;;;4.40;;
61435;SDS011;47304;47.456;19.160;2023-03-31T03:13:59;6.70;;;3.40;;
61435;SDS011;47304;47.456;19.160;2023-03-31T03:16:31;9.80;;;4.60;;
61435;SDS011;47304;47.456;19.160;2023-03-31T03:19:04;8.80;;;4.70;;
61435;SDS011;47304;47.456;19.160;2023-03-31T03:21:31;8.40;;;3.90;;
61435;SDS011;47304;47.456;19.160;2023-03-31T03:23:58;9.40;;;4.10;;
61435;SDS011;47304;47.456;19.160;2023-03-31T03:26:25;8.70;;;4.50;;
61435;SDS011;47304;47.456;19.160;2023-03-31T03:28:51;10.20;;;4.60;;
61435;SDS011;47304;47.456;19.160;2023-03-31T03:31:19;12.00;;;4.40;;
61435;SDS011;47304;47.456;19.160;2023-03-31T03:33:46;8.30;;;4.30;;
61435;SDS011;47304;47.456;19.160;2023-03-31T03:36:12;10.60;;;4.10;;
61435;SDS011;47304;47.456;19.160;2023-03-31T03:38:39;12.60;;;4.40;;
61435;SDS011;47304;47.456;19.160;2023-03-31T03:41:06;8.20;;;3.50;;
61435;SDS011;47304;47.456;19.160;2023-03-31T03:43:32;9.30;;;4.40;;
61435;SDS011;47304;47.456;19.160;2023-03-31T03:45:59;8.80;;;3.80;;
61435;SDS011;47304;47.456;19.160;2023-03-31T03:48:26;8.60;;;3.90;;
61435;SDS011;47304;47.456;19.160;2023-03-31T03:50:52;8.20;;;4.10;;
61435;SDS011;47304;47.456;19.160;2023-03-31T03:53:19;10.40;;;5.00;;
61435;SDS011;47304;47.456;19.160;2023-03-31T03:55:46;10.70;;;6.00;;
61435;SDS011;47304;47.456;19.160;2023-03-31T03:58:13;12.80;;;5.60;;
61435;SDS011;47304;47.456;19.160;2023-03-31T04:00:40;9.60;;;5.10;;
61435;SDS011;47304;47.456;19.160;2023-03-31T04:03:06;13.30;;;5.90;;
61435;SDS011;47304;47.456;19.160;2023-03-31T04:05:35;11.50;;;5.30;;
61435;SDS011;47304;47.456;19.160;2023-03-31T04:08:02;12.40;;;5.90;;
61435;SDS011;47304;47.456;19.160;2023-03-31T04:10:29;9.90;;;5.10;;
61435;SDS011;47304;47.456;19.160;2023-03-31T04:12:55;10.10;;;5.40;;
61435;SDS011;47304;47.456;19.160;2023-03-31T04:15:22;10.60;;;5.40;;
61435;SDS011;47304;47.456;19.160;2023-03-31T04:17:48;10.10;;;5.50;;
61435;SDS011;47304;47.456;19.160;2023-03-31T04:20:15;10.60;;;5.70;;
61435;SDS011;47304;47.456;19.160;2023-03-31T04:22:42;11.00;;;5.50;;
61435;SDS011;47304;47.456;19.160;2023-03-31T04:25:10;10.30;;;5.50;;
61435;SDS011;47304;47.456;19.160;2023-03-31T04:27:38;10.70;;;6.00;;
61435;SDS011;47304;47.456;19.160;2023-03-31T04:30:04;10.20;;;5.90;;
61435;SDS011;47304;47.456;19.160;2023-03-31T04:32:32;9.00;;;5.40;;
61435;SDS011;47304;47.456;19.160;2023-03-31T04:34:58;11.10;;;5.30;;
61435;SDS011;47304;47.456;19.160;2023-03-31T04:37:25;12.70;;;5.50;;
61435;SDS011;47304;47.456;19.160;2023-03-31T04:39:51;11.50;;;6.40;;
61435;SDS011;47304;47.456;19.160;2023-03-31T04:42:18;11.30;;;5.80;;
61435;SDS011;47304;47.456;19.160;2023-03-31T04:44:44;9.20;;;5.20;;
61435;SDS011;47304;47.456;19.160;2023-03-31T04:47:11;10.80;;;5.40;;
61435;SDS011;47304;47.456;19.160;2023-03-31T04:49:37;10.20;;;5.20;;
61435;SDS011;47304;47.456;19.160;2023-03-31T04:52:04;11.80;;;5.30;;
61435;SDS011;47304;47.456;19.160;2023-03-31T04:54:30;12.60;;;5.80;;
61435;SDS011;47304;47.456;19.160;2023-03-31T04:56:57;11.40;;;5.20;;
61435;SDS011;47304;47.456;19.160;2023-03-31T04:59:24;8.40;;;4.90;;
61435;SDS011;47304;47.456;19.160;2023-03-31T05:01:50;10.70;;;5.10;;
61435;SDS011;47304;47.456;19.160;2023-03-31T05:04:17;9.90;;;5.20;;
61435;SDS011;47304;47.456;19.160;2023-03-31T05:06:43;12.00;;;4.90;;
61435;SDS011;47304;47.456;19.160;2023-03-31T05:09:10;9.90;;;4.70;;
61435;SDS011;47304;47.456;19.160;2023-03-31T05:11:37;10.00;;;4.90;;
61435;SDS011;47304;47.456;19.160;2023-03-31T05:14:03;9.10;;;5.10;;
61435;SDS011;47304;47.456;19.160;2023-03-31T05:16:30;9.80;;;5.00;;
61435;SDS011;47304;47.456;19.160;2023-03-31T05:18:56;10.90;;;4.90;;
61435;SDS011;47304;47.456;19.160;2023-03-31T05:21:23;10.80;;;5.10;;
61435;SDS011;47304;47.456;19.160;2023-03-31T05:23:50;10.50;;;5.90;;
61435;SDS011;47304;47.456;19.160;2023-03-31T05:26:16;12.00;;;6.40;;
61435;SDS011;47304;47.456;19.160;2023-03-31T05:28:43;12.10;;;7.50;;
61435;SDS011;47304;47.456;19.160;2023-03-31T05:31:10;13.30;;;7.00;;
61435;SDS011;47304;47.456;19.160;2023-03-31T05:33:37;11.90;;;6.30;;
61435;SDS011;47304;47.456;19.160;2023-03-31T05:36:04;12.80;;;6.00;;
61435;SDS011;47304;47.456;19.160;2023-03-31T05:38:31;10.50;;;5.80;;
61435;SDS011;47304;47.456;19.160;2023-03-31T05:40:58;13.60;;;7.00;;
61435;SDS011;47304;47.456;19.160;2023-03-31T05:43:24;13.20;;;7.70;;
61435;SDS011;47304;47.456;19.160;2023-03-31T05:45:51;12.10;;;7.50;;
61435;SDS011;47304;47.456;19.160;2023-03-31T05:48:18;13.20;;;7.80;;
61435;SDS011;47304;47.456;19.160;2023-03-31T05:50:44;13.30;;;6.80;;
61435;SDS011;47304;47.456;19.160;2023-03-31T05:53:11;12.40;;;7.80;;
61435;SDS011;47304;47.456;19.160;2023-03-31T05:55:38;12.20;;;6.50;;
61435;SDS011;47304;47.456;19.160;2023-03-31T05:58:05;12.30;;;7.70;;
61435;SDS011;47304;47.456;19.160;2023-03-31T06:00:32;12.60;;;7.90;;
61435;SDS011;47304;47.456;19.160;2023-03-31T06:02:58;12.50;;;7.40;;
61435;SDS011;47304;47.456;19.160;2023-03-31T06:05:25;12.60;;;6.90;;
61435;SDS011;47304;47.456;19.160;2023-03-31T06:07:52;12.60;;;7.20;;
61435;SDS011;47304;47.456;19.160;2023-03-31T06:10:19;15.90;;;8.50;;
61435;SDS011;47304;47.456;19.160;2023-03-31T06:12:45;14.50;;;6.30;;
61435;SDS011;47304;47.456;19.160;2023-03-31T06:15:12;12.00;;;6.60;;
61435;SDS011;47304;47.456;19.160;2023-03-31T06:17:39;11.00;;;6.70;;
61435;SDS011;47304;47.456;19.160;2023-03-31T06:20:05;11.30;;;6.30;;
61435;SDS011;47304;47.456;19.160;2023-03-31T06:22:52;12.60;;;6.50;;
61435;SDS011;47304;47.456;19.160;2023-03-31T06:25:18;13.20;;;7.40;;
61435;SDS011;47304;47.456;19.160;2023-03-31T06:27:45;10.90;;;6.80;;
61435;SDS011;47304;47.456;19.160;2023-03-31T06:30:11;13.60;;;6.70;;
61435;SDS011;47304;47.456;19.160;2023-03-31T06:32:38;13.50;;;6.20;;
61435;SDS011;47304;47.456;19.160;2023-03-31T06:35:05;15.10;;;7.00;;
61435;SDS011;47304;47.456;19.160;2023-03-31T06:37:32;13.50;;;8.20;;
61435;SDS011;47304;47.456;19.160;2023-03-31T06:39:58;12.10;;;7.10;;
61435;SDS011;47304;47.456;19.160;2023-03-31T06:42:25;16.40;;;6.80;;
61435;SDS011;47304;47.456;19.160;2023-03-31T06:44:51;21.00;;;11.30;;
61435;SDS011;47304;47.456;19.160;2023-03-31T06:47:18;19.40;;;10.30;;
61435;SDS011;47304;47.456;19.160;2023-03-31T06:49:45;11.70;;;7.10;;
61435;SDS011;47304;47.456;19.160;2023-03-31T06:52:11;12.90;;;7.10;;
61435;SDS011;47304;47.456;19.160;2023-03-31T06:54:38;12.40;;;7.60;;
61435;SDS011;47304;47.456;19.160;2023-03-31T06:57:04;13.80;;;7.90;;
61435;SDS011;47304;47.456;19.160;2023-03-31T06:59:31;13.20;;;6.90;;
61435;SDS011;47304;47.456;19.160;2023-03-31T07:01:58;11.40;;;6.30;;
61435;SDS011;47304;47.456;19.160;2023-03-31T07:04:24;10.60;;;6.10;;
61435;SDS011;47304;47.456;19.160;2023-03-31T07:06:51;9.90;;;6.20;;
61435;SDS011;47304;47.456;19.160;2023-03-31T07:09:17;12.00;;;6.10;;
61435;SDS011;47304;47.456;19.160;2023-03-31T07:11:44;9.80;;;5.80;;
61435;SDS011;47304;47.456;19.160;2023-03-31T07:14:10;12.60;;;7.40;;
61435;SDS011;47304;47.456;19.160;2023-03-31T07:16:37;11.60;;;5.90;;
61435;SDS011;47304;47.456;19.160;2023-03-31T07:19:05;11.60;;;6.90;;
61435;SDS011;47304;47.456;19.160;2023-03-31T07:21:32;9.90;;;5.70;;
61435;SDS011;47304;47.456;19.160;2023-03-31T07:23:59;11.10;;;6.70;;
61435;SDS011;47304;47.456;19.160;2023-03-31T07:26:25;12.50;;;6.10;;
61435;SDS011;47304;47.456;19.160;2023-03-31T07:28:52;10.10;;;6.20;;
61435;SDS011;47304;47.456;19.160;2023-03-31T07:31:21;11.90;;;5.90;;
61435;SDS011;47304;47.456;19.160;2023-03-31T07:33:55;12.40;;;6.90;;
61435;SDS011;47304;47.456;19.160;2023-03-31T07:36:22;12.70;;;7.70;;
61435;SDS011;47304;47.456;19.160;2023-03-31T07:38:49;10.50;;;6.50;;
61435;SDS011;47304;47.456;19.160;2023-03-31T07:41:22;13.00;;;7.60;;
61435;SDS011;47304;47.456;19.160;2023-03-31T07:44:00;12.60;;;7.40;;
61435;SDS011;47304;47.456;19.160;2023-03-31T07:46:27;12.70;;;6.80;;
61435;SDS011;47304;47.456;19.160;2023-03-31T07:48:54;12.40;;;7.90;;
61435;SDS011;47304;47.456;19.160;2023-03-31T07:51:23;13.70;;;7.60;;
61435;SDS011;47304;47.456;19.160;2023-03-31T07:53:51;12.00;;;6.10;;
61435;SDS011;47304;47.456;19.160;2023-03-31T07:56:18;9.60;;;5.10;;
61435;SDS011;47304;47.456;19.160;2023-03-31T07:58:45;10.10;;;5.50;;
61435;SDS011;47304;47.456;19.160;2023-03-31T08:01:14;9.30;;;4.80;;
61435;SDS011;47304;47.456;19.160;2023-03-31T08:03:44;9.50;;;4.80;;
61435;SDS011;47304;47.456;19.160;2023-03-31T08:06:18;10.60;;;5.90;;
61435;SDS011;47304;47.456;19.160;2023-03-31T08:08:46;11.10;;;6.10;;
61435;SDS011;47304;47.456;19.160;2023-03-31T08:11:16;12.60;;;5.00;;
61435;SDS011;47304;47.456;19.160;2023-03-31T08:13:43;9.70;;;5.80;;
61435;SDS011;47304;47.456;19.160;2023-03-31T08:16:10;12.00;;;5.40;;
61435;SDS011;47304;47.456;19.160;2023-03-31T08:18:37;10.00;;;4.40;;
61435;SDS011;47304;47.456;19.160;2023-03-31T08:21:03;11.30;;;4.10;;
61435;SDS011;47304;47.456;19.160;2023-03-31T08:23:30;9.20;;;4.30;;
61435;SDS011;47304;47.456;19.160;2023-03-31T08:28:52;9.60;;;4.30;;
61435;SDS011;47304;47.456;19.160;2023-03-31T08:31:19;9.20;;;5.20;;
61435;SDS011;47304;47.456;19.160;2023-03-31T08:33:47;10.60;;;4.90;;
61435;SDS011;47304;47.456;19.160;2023-03-31T08:36:13;8.10;;;4.40;;
61435;SDS011;47304;47.456;19.160;2023-03-31T08:38:40;9.10;;;4.70;;
61435;SDS011;47304;47.456;19.160;2023-03-31T08:41:24;10.10;;;4.60;;
61435;SDS011;47304;47.456;19.160;2023-03-31T08:44:19;10.50;;;4.60;;
61435;SDS011;47304;47.456;19.160;2023-03-31T08:46:50;9.00;;;4.20;;
61435;SDS011;47304;47.456;19.160;2023-03-31T08:49:21;9.60;;;4.40;;
61435;SDS011;47304;47.456;19.160;2023-03-31T08:51:55;9.80;;;4.30;;
61435;SDS011;47304;47.456;19.160;2023-03-31T08:56:59;10.40;;;5.00;;
61435;SDS011;47304;47.456;19.160;2023-03-31T08:59:32;9.20;;;4.60;;
61435;SDS011;47304;47.456;19.160;2023-03-31T09:16:01;10.50;;;4.50;;
61435;SDS011;47304;47.456;19.160;2023-03-31T09:18:41;8.90;;;4.10;;
61435;SDS011;47304;47.456;19.160;2023-03-31T09:23:39;8.30;;;3.90;;
61435;SDS011;47304;47.456;19.160;2023-03-31T09:26:21;9.20;;;3.90;;
61435;SDS011;47304;47.456;19.160;2023-03-31T09:28:52;8.70;;;4.00;;
61435;SDS011;47304;47.456;19.160;2023-03-31T09:31:22;8.00;;;3.70;;
61435;SDS011;47304;47.456;19.160;2023-03-31T09:33:51;8.00;;;3.90;;
61435;SDS011;47304;47.456;19.160;2023-03-31T09:36:22;8.30;;;3.60;;
61435;SDS011;47304;47.456;19.160;2023-03-31T09:38:48;9.40;;;3.60;;
61435;SDS011;47304;47.456;19.160;2023-03-31T09:41:16;7.80;;;4.00;;
61435;SDS011;47304;47.456;19.160;2023-03-31T09:43:43;8.50;;;3.50;;
61435;SDS011;47304;47.456;19.160;2023-03-31T09:46:13;8.90;;;2.90;;
61435;SDS011;47304;47.456;19.160;2023-03-31T09:49:01;8.20;;;3.10;;
61435;SDS011;47304;47.456;19.160;2023-03-31T09:51:33;6.80;;;3.00;;
61435;SDS011;47304;47.456;19.160;2023-03-31T09:56:52;8.80;;;4.10;;
61435;SDS011;47304;47.456;19.160;2023-03-31T09:59:23;9.60;;;4.80;;
61435;SDS011;47304;47.456;19.160;2023-03-31T10:01:59;8.10;;;4.00;;
61435;SDS011;47304;47.456;19.160;2023-03-31T10:04:31;8.90;;;4.10;;
61435;SDS011;47304;47.456;19.160;2023-03-31T10:07:00;9.00;;;3.70;;
61435;SDS011;47304;47.456;19.160;2023-03-31T10:09:30;8.80;;;4.00;;
61435;SDS011;47304;47.456;19.160;2023-03-31T10:12:02;9.00;;;3.50;;
61435;SDS011;47304;47.456;19.160;2023-03-31T10:14:37;8.10;;;3.40;;
61435;SDS011;47304;47.456;19.160;2023-03-31T10:17:16;7.70;;;4.00;;
61435;SDS011;47304;47.456;19.160;2023-03-31T10:19:51;13.90;;;6.20;;
61435;SDS011;47304;47.456;19.160;2023-03-31T10:24:46;6.70;;;3.20;;
61435;SDS011;47304;47.456;19.160;2023-03-31T10:29:47;6.80;;;2.70;;
61435;SDS011;47304;47.456;19.160;2023-03-31T10:34:50;6.60;;;3.00;;
61435;SDS011;47304;47.456;19.160;2023-03-31T10:37:18;8.40;;;2.80;;
61435;SDS011;47304;47.456;19.160;2023-03-31T10:39:47;5.10;;;2.40;;
61435;SDS011;47304;47.456;19.160;2023-03-31T10:42:22;6.30;;;2.60;;
61435;SDS011;47304;47.456;19.160;2023-03-31T10:44:51;8.00;;;2.70;;
61435;SDS011;47304;47.456;19.160;2023-03-31T10:48:03;6.80;;;3.20;;
61435;SDS011;47304;47.456;19.160;2023-03-31T10:50:32;6.80;;;3.10;;
61435;SDS011;47304;47.456;19.160;2023-03-31T10:53:02;6.30;;;2.90;;
61435;SDS011;47304;47.456;19.160;2023-03-31T11:01:41;6.40;;;3.20;;
61435;SDS011;47304;47.456;19.160;2023-03-31T11:09:47;6.50;;;3.00;;
61435;SDS011;47304;47.456;19.160;2023-03-31T11:28:28;4.80;;;2.30;;
61435;SDS011;47304;47.456;19.160;2023-03-31T11:31:12;5.30;;;2.30;;
61435;SDS011;47304;47.456;19.160;2023-03-31T11:39:39;6.40;;;2.30;;
61435;SDS011;47304;47.456;19.160;2023-03-31T11:42:25;5.20;;;2.20;;
61435;SDS011;47304;47.456;19.160;2023-03-31T11:45:04;5.60;;;2.30;;
61435;SDS011;47304;47.456;19.160;2023-03-31T11:47:59;5.90;;;2.50;;
61435;SDS011;47304;47.456;19.160;2023-03-31T11:50:33;7.80;;;2.40;;
61435;SDS011;47304;47.456;19.160;2023-03-31T11:55:40;6.30;;;2.90;;
61435;SDS011;47304;47.456;19.160;2023-03-31T12:00:37;5.80;;;2.50;;
61435;SDS011;47304;47.456;19.160;2023-03-31T12:03:13;6.40;;;2.40;;
61435;SDS011;47304;47.456;19.160;2023-03-31T12:05:47;8.90;;;2.70;;
61435;SDS011;47304;47.456;19.160;2023-03-31T12:11:04;5.60;;;2.30;;
61435;SDS011;47304;47.456;19.160;2023-03-31T12:13:53;5.30;;;2.30;;
61435;SDS011;47304;47.456;19.160;2023-03-31T12:19:07;7.30;;;2.80;;
61435;SDS011;47304;47.456;19.160;2023-03-31T12:21:41;8.80;;;3.50;;
61435;SDS011;47304;47.456;19.160;2023-03-31T12:24:13;6.80;;;2.80;;
61435;SDS011;47304;47.456;19.160;2023-03-31T12:26:43;8.80;;;3.60;;
61435;SDS011;47304;47.456;19.160;2023-03-31T12:29:23;7.00;;;2.90;;
61435;SDS011;47304;47.456;19.160;2023-03-31T12:31:52;6.90;;;2.80;;
61435;SDS011;47304;47.456;19.160;2023-03-31T12:34:22;5.90;;;2.80;;
61435;SDS011;47304;47.456;19.160;2023-03-31T12:53:45;7.40;;;3.30;;
61435;SDS011;47304;47.456;19.160;2023-03-31T12:57:01;6.20;;;2.70;;
61435;SDS011;47304;47.456;19.160;2023-03-31T13:02:16;8.50;;;3.60;;
61435;SDS011;47304;47.456;19.160;2023-03-31T13:04:47;8.00;;;3.40;;
61435;SDS011;47304;47.456;19.160;2023-03-31T13:12:40;7.10;;;3.20;;
61435;SDS011;47304;47.456;19.160;2023-03-31T13:15:11;8.10;;;3.10;;
61435;SDS011;47304;47.456;19.160;2023-03-31T13:17:40;7.90;;;3.00;;
61435;SDS011;47304;47.456;19.160;2023-03-31T13:25:34;7.50;;;3.30;;
61435;SDS011;47304;47.456;19.160;2023-03-31T13:33:10;8.40;;;3.00;;
61435;SDS011;47304;47.456;19.160;2023-03-31T13:35:43;10.10;;;3.30;;
61435;SDS011;47304;47.456;19.160;2023-03-31T13:40:56;8.30;;;3.00;;
61435;SDS011;47304;47.456;19.160;2023-03-31T13:43:42;7.30;;;2.80;;
61435;SDS011;47304;47.456;19.160;2023-03-31T13:49:45;7.10;;;2.90;;
61435;SDS011;47304;47.456;19.160;2023-03-31T13:52:13;6.60;;;2.70;;
61435;SDS011;47304;47.456;19.160;2023-03-31T13:57:46;7.60;;;2.90;;
61435;SDS011;47304;47.456;19.160;2023-03-31T14:08:49;6.60;;;2.80;;
61435;SDS011;47304;47.456;19.160;2023-03-31T14:11:26;8.30;;;3.60;;
61435;SDS011;47304;47.456;19.160;2023-03-31T14:16:38;7.40;;;2.70;;
61435;SDS011;47304;47.456;19.160;2023-03-31T14:19:10;9.30;;;3.00;;
61435;SDS011;47304;47.456;19.160;2023-03-31T14:22:05;7.20;;;2.20;;
61435;SDS011;47304;47.456;19.160;2023-03-31T14:27:50;19.80;;;3.80;;
61435;SDS011;47304;47.456;19.160;2023-03-31T14:33:41;9.70;;;3.20;;
61435;SDS011;47304;47.456;19.160;2023-03-31T14:36:23;7.40;;;2.90;;
61435;SDS011;47304;47.456;19.160;2023-03-31T14:39:13;6.90;;;3.00;;
61435;SDS011;47304;47.456;19.160;2023-03-31T14:41:48;6.40;;;2.70;;
61435;SDS011;47304;47.456;19.160;2023-03-31T14:44:17;10.10;;;3.30;;
61435;SDS011;47304;47.456;19.160;2023-03-31T14:46:44;10.60;;;3.00;;
61435;SDS011;47304;47.456;19.160;2023-03-31T14:51:51;7.10;;;2.80;;
61435;SDS011;47304;47.456;19.160;2023-03-31T14:54:19;6.90;;;2.70;;
61435;SDS011;47304;47.456;19.160;2023-03-31T14:56:47;8.20;;;2.70;;
61435;SDS011;47304;47.456;19.160;2023-03-31T14:59:20;6.40;;;2.40;;
61435;SDS011;47304;47.456;19.160;2023-03-31T15:01:50;12.00;;;3.10;;
61435;SDS011;47304;47.456;19.160;2023-03-31T15:04:18;6.80;;;2.60;;
61435;SDS011;47304;47.456;19.160;2023-03-31T15:07:04;7.70;;;2.80;;
61435;SDS011;47304;47.456;19.160;2023-03-31T15:09:32;8.50;;;2.80;;
61435;SDS011;47304;47.456;19.160;2023-03-31T15:12:01;7.80;;;2.80;;
61435;SDS011;47304;47.456;19.160;2023-03-31T15:14:30;7.10;;;2.70;;
61435;SDS011;47304;47.456;19.160;2023-03-31T15:17:00;8.80;;;3.00;;
61435;SDS011;47304;47.456;19.160;2023-03-31T15:19:32;8.20;;;2.70;;
61435;SDS011;47304;47.456;19.160;2023-03-31T15:22:10;7.10;;;2.50;;
61435;SDS011;47304;47.456;19.160;2023-03-31T15:24:40;8.30;;;3.00;;
61435;SDS011;47304;47.456;19.160;2023-03-31T15:27:50;5.40;;;2.50;;
61435;SDS011;47304;47.456;19.160;2023-03-31T15:30:36;9.70;;;3.00;;
61435;SDS011;47304;47.456;19.160;2023-03-31T15:32:56;8.80;;;2.90;;
61435;SDS011;47304;47.456;19.160;2023-03-31T15:35:43;7.90;;;2.80;;
61435;SDS011;47304;47.456;19.160;2023-03-31T15:38:10;9.20;;;2.80;;
61435;SDS011;47304;47.456;19.160;2023-03-31T15:40:39;7.30;;;2.90;;
61435;SDS011;47304;47.456;19.160;2023-03-31T15:43:18;7.00;;;3.00;;
61435;SDS011;47304;47.456;19.160;2023-03-31T15:45:54;7.70;;;2.80;;
61435;SDS011;47304;47.456;19.160;2023-03-31T15:48:36;8.80;;;2.90;;
61435;SDS011;47304;47.456;19.160;2023-03-31T15:56:28;6.00;;;2.70;;
61435;SDS011;47304;47.456;19.160;2023-03-31T15:59:02;8.30;;;3.10;;
61435;SDS011;47304;47.456;19.160;2023-03-31T16:01:34;9.10;;;2.80;;
61435;SDS011;47304;47.456;19.160;2023-03-31T16:04:05;7.00;;;3.00;;
61435;SDS011;47304;47.456;19.160;2023-03-31T16:06:38;9.60;;;3.00;;
61435;SDS011;47304;47.456;19.160;2023-03-31T16:09:24;9.40;;;3.20;;
61435;SDS011;47304;47.456;19.160;2023-03-31T16:12:08;6.70;;;3.00;;
61435;SDS011;47304;47.456;19.160;2023-03-31T16:14:56;7.20;;;2.90;;
61435;SDS011;47304;47.456;19.160;2023-03-31T16:17:29;10.10;;;2.80;;
61435;SDS011;47304;47.456;19.160;2023-03-31T16:20:50;7.90;;;3.10;;
61435;SDS011;47304;47.456;19.160;2023-03-31T16:22:57;7.50;;;2.90;;
61435;SDS011;47304;47.456;19.160;2023-03-31T16:25:25;11.50;;;3.10;;
61435;SDS011;47304;47.456;19.160;2023-03-31T16:27:58;7.80;;;3.20;;
61435;SDS011;47304;47.456;19.160;2023-03-31T16:30:34;8.20;;;3.10;;
61435;SDS011;47304;47.456;19.160;2023-03-31T16:33:04;6.30;;;3.00;;
61435;SDS011;47304;47.456;19.160;2023-03-31T16:35:34;8.80;;;3.00;;
61435;SDS011;47304;47.456;19.160;2023-03-31T16:38:06;8.20;;;3.10;;
61435;SDS011;47304;47.456;19.160;2023-03-31T16:40:35;7.90;;;3.20;;
61435;SDS011;47304;47.456;19.160;2023-03-31T16:45:44;8.40;;;2.70;;
61435;SDS011;47304;47.456;19.160;2023-03-31T16:48:13;8.40;;;2.70;;
61435;SDS011;47304;47.456;19.160;2023-03-31T16:50:48;8.30;;;2.60;;
61435;SDS011;47304;47.456;19.160;2023-03-31T16:53:16;7.90;;;2.80;;
61435;SDS011;47304;47.456;19.160;2023-03-31T16:55:45;7.80;;;2.50;;
61435;SDS011;47304;47.456;19.160;2023-03-31T16:58:12;7.40;;;2.50;;
61435;SDS011;47304;47.456;19.160;2023-03-31T17:00:39;6.10;;;2.40;;
61435;SDS011;47304;47.456;19.160;2023-03-31T17:03:06;6.10;;;2.40;;
61435;SDS011;47304;47.456;19.160;2023-03-31T17:05:38;6.60;;;2.80;;
61435;SDS011;47304;47.456;19.160;2023-03-31T17:08:09;6.90;;;2.70;;
61435;SDS011;47304;47.456;19.160;2023-03-31T17:10:37;7.70;;;2.90;;
61435;SDS011;47304;47.456;19.160;2023-03-31T17:13:06;7.10;;;2.60;;
61435;SDS011;47304;47.456;19.160;2023-03-31T17:15:33;8.80;;;3.00;;
61435;SDS011;47304;47.456;19.160;2023-03-31T17:18:02;8.30;;;2.70;;
61435;SDS011;47304;47.456;19.160;2023-03-31T17:20:29;6.70;;;2.70;;
61435;SDS011;47304;47.456;19.160;2023-03-31T17:22:56;7.80;;;2.80;;
61435;SDS011;47304;47.456;19.160;2023-03-31T17:25:22;9.40;;;3.00;;
61435;SDS011;47304;47.456;19.160;2023-03-31T17:27:49;7.70;;;3.00;;
61435;SDS011;47304;47.456;19.160;2023-03-31T17:30:16;8.10;;;2.90;;
61435;SDS011;47304;47.456;19.160;2023-03-31T17:32:42;9.10;;;3.10;;
61435;SDS011;47304;47.456;19.160;2023-03-31T17:35:09;6.70;;;2.80;;
61435;SDS011;47304;47.456;19.160;2023-03-31T17:37:35;7.10;;;3.20;;
61435;SDS011;47304;47.456;19.160;2023-03-31T17:40:03;8.80;;;3.50;;
61435;SDS011;47304;47.456;19.160;2023-03-31T17:42:30;9.30;;;3.30;;
61435;SDS011;47304;47.456;19.160;2023-03-31T17:44:57;8.50;;;3.50;;
61435;SDS011;47304;47.456;19.160;2023-03-31T17:47:23;8.70;;;3.20;;
61435;SDS011;47304;47.456;19.160;2023-03-31T17:49:50;7.40;;;3.20;;
61435;SDS011;47304;47.456;19.160;2023-03-31T17:52:16;9.60;;;3.30;;
61435;SDS011;47304;47.456;19.160;2023-03-31T17:54:43;7.00;;;3.10;;
61435;SDS011;47304;47.456;19.160;2023-03-31T17:57:09;8.50;;;3.50;;
61435;SDS011;47304;47.456;19.160;2023-03-31T17:59:36;7.50;;;3.10;;
61435;SDS011;47304;47.456;19.160;2023-03-31T18:02:04;8.10;;;3.90;;
61435;SDS011;47304;47.456;19.160;2023-03-31T18:04:31;7.60;;;3.10;;
61435;SDS011;47304;47.456;19.160;2023-03-31T18:06:57;8.30;;;3.40;;
61435;SDS011;47304;47.456;19.160;2023-03-31T18:09:24;8.00;;;3.10;;